Chignik Lake Airport

About
Name: Chignik Lake Airport
Identifier:  KCQ/PAJC
Serves:  Chignik Lake, Alaska
Owner:  State of Alaska DOT&PF - Central Region
Public/Private:  Public
Local Time:  22. Aug 21:33 AKDT
Description: Chignik Lake Airport is a state-owned, public-use airport located at Chignik Lake, in the Lake and Peninsula Borough of the U.S. state of Alaska.
Source: Wikipedia
Location
Runways
Identifier Length (m/ft) Surface
8/26 2,800/2,800 Gravel
Flights per Day
0 flights
Current Weather
 17 C (Humidity: 59%)
  11kt (20km/h / 12mph) from 250°
14 knots Gusts

  16km (10 mi.)
 
 METAR PAJC 230457Z AUTO 25011G14KT 10SM CLR 17/09 A2969 RMK AO2 SLP054 T01670089

Current Flights

Departures
Number Departure To Airline
Arrivals
Number Arrival From Airline

Current Delays

Departures
N/A
Arrivals
N/A